createdAt,value
2022-07-30T00:01:34.486Z,17.20
2022-07-30T00:04:03.555Z,17.10
2022-07-30T00:06:30.632Z,17.10
2022-07-30T00:08:57.540Z,17.10
2022-07-30T00:11:27.826Z,17.10
2022-07-30T00:13:55.910Z,17.10
2022-07-30T00:16:23.086Z,17.00
2022-07-30T00:18:49.963Z,17.00
2022-07-30T00:21:20.213Z,17.00
2022-07-30T00:24:02.629Z,16.90
2022-07-30T00:26:29.837Z,16.90
2022-07-30T00:28:56.655Z,16.80
2022-07-30T00:31:23.595Z,16.80
2022-07-30T00:33:50.432Z,16.80
2022-07-30T00:36:17.506Z,16.80
2022-07-30T00:38:45.589Z,16.70
2022-07-30T00:41:12.642Z,16.70
2022-07-30T00:43:39.736Z,16.70
2022-07-30T00:46:06.739Z,16.70
2022-07-30T00:48:33.659Z,16.60
2022-07-30T00:51:00.486Z,16.60
2022-07-30T00:53:27.336Z,16.60
2022-07-30T00:55:54.191Z,16.60
2022-07-30T00:58:21.029Z,16.60
2022-07-30T01:00:48.936Z,16.50
2022-07-30T01:03:15.883Z,16.50
2022-07-30T01:05:42.733Z,16.50
2022-07-30T01:08:09.559Z,16.50
2022-07-30T01:10:36.484Z,16.40
2022-07-30T01:13:04.910Z,16.40
2022-07-30T01:15:32.703Z,16.40
2022-07-30T01:18:03.281Z,16.40
2022-07-30T01:20:51.683Z,16.40
2022-07-30T01:23:29.076Z,16.30
2022-07-30T01:26:10.898Z,16.30
2022-07-30T01:28:42.263Z,16.30
2022-07-30T01:31:10.813Z,16.20
2022-07-30T01:33:42.837Z,16.20
2022-07-30T01:36:14.171Z,16.20
2022-07-30T01:38:44.932Z,16.20
2022-07-30T01:41:15.181Z,16.10
2022-07-30T01:43:43.209Z,16.10
2022-07-30T01:46:12.026Z,16.10
2022-07-30T01:48:41.223Z,16.10
2022-07-30T01:51:12.507Z,16.10
2022-07-30T01:53:44.393Z,16.00
2022-07-30T01:56:16.803Z,16.00
2022-07-30T01:58:46.644Z,16.00
2022-07-30T02:01:19.771Z,16.00
2022-07-30T02:03:46.942Z,15.90
2022-07-30T02:06:21.034Z,15.90
2022-07-30T02:09:01.688Z,15.90
2022-07-30T02:12:02.994Z,15.90
2022-07-30T02:14:41.194Z,15.80
2022-07-30T02:17:18.705Z,15.80
2022-07-30T02:19:53.022Z,15.80
2022-07-30T02:22:23.414Z,15.70
2022-07-30T02:24:52.154Z,15.70
2022-07-30T02:27:27.327Z,15.70
2022-07-30T02:29:58.395Z,15.70
2022-07-30T02:32:27.805Z,15.70
2022-07-30T02:35:05.381Z,15.70
2022-07-30T02:37:42.862Z,15.60
2022-07-30T02:40:15.860Z,15.60
2022-07-30T02:42:45.703Z,15.60
2022-07-30T02:45:20.620Z,15.60
2022-07-30T02:47:51.436Z,15.50
2022-07-30T02:50:19.899Z,15.50
2022-07-30T02:52:48.433Z,15.50
2022-07-30T02:55:16.743Z,15.50
2022-07-30T02:57:45.150Z,15.50
2022-07-30T03:00:12.679Z,15.50
2022-07-30T03:02:43.619Z,15.40
2022-07-30T03:05:13.712Z,15.40
2022-07-30T03:07:42.290Z,15.40
2022-07-30T03:10:09.640Z,15.40
2022-07-30T03:12:37.946Z,15.40
2022-07-30T03:15:05.317Z,15.30
2022-07-30T03:17:38.138Z,15.40
2022-07-30T03:20:09.365Z,15.30
2022-07-30T03:22:40.306Z,15.30
2022-07-30T03:25:08.682Z,15.30
2022-07-30T03:27:39.726Z,15.30
2022-07-30T03:30:08.207Z,15.30
2022-07-30T03:32:36.941Z,15.20
2022-07-30T03:35:08.742Z,15.20
2022-07-30T03:37:46.231Z,15.20
2022-07-30T03:40:15.188Z,15.20
2022-07-30T03:42:43.171Z,15.20
2022-07-30T03:45:10.883Z,15.20
2022-07-30T03:47:40.304Z,15.10
2022-07-30T03:50:07.896Z,15.10
2022-07-30T03:52:41.885Z,15.10
2022-07-30T03:55:12.831Z,15.10
2022-07-30T03:57:45.792Z,15.10
2022-07-30T04:00:14.761Z,15.10
2022-07-30T04:02:47.597Z,15.10
2022-07-30T04:05:27.144Z,15.10
2022-07-30T04:08:08.731Z,15.10
2022-07-30T04:10:35.979Z,15.00
2022-07-30T04:13:23.617Z,15.00
2022-07-30T04:16:37.886Z,15.10
2022-07-30T04:18:53.369Z,15.00
2022-07-30T04:21:23.725Z,15.00
2022-07-30T04:24:03.959Z,15.00
2022-07-30T04:26:34.445Z,15.00
2022-07-30T04:29:02.498Z,15.20
2022-07-30T04:31:29.744Z,15.10
2022-07-30T04:34:04.770Z,15.10
2022-07-30T04:36:40.213Z,15.10
2022-07-30T04:39:07.613Z,15.10
2022-07-30T04:41:48.704Z,15.10
2022-07-30T04:44:36.593Z,15.10
2022-07-30T04:47:23.877Z,15.10
2022-07-30T04:50:10.068Z,15.10
2022-07-30T04:52:37.696Z,15.10
2022-07-30T04:55:08.754Z,15.10
2022-07-30T04:57:40.263Z,15.10
2022-07-30T05:00:09.028Z,15.10
2022-07-30T05:02:41.232Z,15.10
2022-07-30T05:05:10.806Z,15.10
2022-07-30T05:07:39.419Z,15.20
2022-07-30T05:10:09.018Z,15.20
2022-07-30T05:12:40.050Z,15.30
2022-07-30T05:15:09.273Z,15.40
2022-07-30T05:17:37.120Z,15.60
2022-07-30T05:20:06.935Z,15.70
2022-07-30T05:22:52.369Z,15.80
2022-07-30T05:25:21.506Z,16.00
2022-07-30T05:27:51.327Z,16.20
2022-07-30T05:30:18.186Z,16.40
2022-07-30T05:32:49.495Z,16.50
2022-07-30T05:35:17.065Z,16.70
2022-07-30T05:37:43.985Z,16.90
2022-07-30T05:40:12.144Z,17.00
2022-07-30T05:43:11.021Z,17.20
2022-07-30T05:45:38.341Z,17.40
2022-07-30T05:48:05.508Z,17.50
2022-07-30T05:50:32.380Z,17.70
2022-07-30T05:52:59.157Z,17.90
2022-07-30T05:55:44.642Z,18.10
2022-07-30T05:58:29.995Z,18.20
2022-07-30T06:00:57.410Z,18.40
2022-07-30T06:03:28.300Z,18.50
2022-07-30T06:06:22.703Z,18.80
2022-07-30T06:08:50.581Z,18.90
2022-07-30T06:11:17.811Z,19.10
2022-07-30T06:13:44.745Z,19.20
2022-07-30T06:16:11.954Z,19.30
2022-07-30T06:18:39.035Z,19.40
2022-07-30T06:21:14.482Z,19.70
2022-07-30T06:24:10.410Z,19.70
2022-07-30T06:26:46.835Z,19.90
2022-07-30T06:29:14.466Z,20.10
2022-07-30T06:31:41.564Z,20.20
2022-07-30T06:34:12.182Z,20.20
2022-07-30T06:36:42.172Z,20.30
2022-07-30T06:39:14.931Z,20.30
2022-07-30T06:42:20.708Z,20.50
2022-07-30T06:45:16.711Z,20.70
2022-07-30T06:48:22.135Z,20.80
2022-07-30T06:50:49.047Z,21.00
2022-07-30T06:53:16.212Z,21.10
2022-07-30T06:56:18.227Z,21.20
2022-07-30T06:58:53.005Z,21.40
2022-07-30T07:01:38.407Z,21.40
2022-07-30T07:04:05.478Z,21.50
2022-07-30T07:06:33.068Z,21.60
2022-07-30T07:09:00.461Z,21.70
2022-07-30T07:11:37.408Z,21.90
2022-07-30T07:14:08.866Z,22.00
2022-07-30T07:16:36.606Z,21.70
2022-07-30T07:19:59.810Z,21.80
2022-07-30T07:22:11.182Z,21.90
2022-07-30T07:24:38.174Z,22.10
2022-07-30T07:27:15.611Z,22.10
2022-07-30T07:30:01.862Z,22.20
2022-07-30T07:32:32.507Z,22.40
2022-07-30T07:34:59.397Z,22.60
2022-07-30T07:37:26.987Z,22.70
2022-07-30T07:39:53.998Z,22.90
2022-07-30T07:42:21.078Z,22.90
2022-07-30T07:44:49.391Z,23.10
2022-07-30T07:47:17.245Z,23.30
2022-07-30T07:49:57.672Z,23.30
2022-07-30T07:52:24.585Z,23.50
2022-07-30T07:54:52.219Z,23.60
2022-07-30T07:57:20.287Z,23.60
2022-07-30T07:59:47.814Z,23.50
2022-07-30T08:02:24.147Z,23.50
2022-07-30T08:05:06.438Z,23.30
2022-07-30T08:07:51.119Z,23.60
2022-07-30T08:10:27.028Z,23.90
2022-07-30T08:13:52.349Z,24.10
2022-07-30T08:16:29.333Z,24.30
2022-07-30T08:19:14.973Z,24.50
2022-07-30T08:21:48.247Z,24.60
2022-07-30T08:24:17.479Z,24.80
2022-07-30T08:26:44.346Z,24.80
2022-07-30T08:29:16.790Z,24.90
2022-07-30T08:31:44.508Z,25.10
2022-07-30T08:34:11.464Z,25.10
2022-07-30T08:36:39.699Z,25.30
2022-07-30T08:39:06.580Z,25.40
2022-07-30T08:41:33.714Z,25.40
2022-07-30T08:44:01.527Z,25.60
2022-07-30T08:46:31.901Z,25.80
2022-07-30T08:49:11.036Z,25.80
2022-07-30T08:51:40.047Z,25.90
2022-07-30T08:54:22.940Z,25.90
2022-07-30T08:56:50.514Z,26.00
2022-07-30T08:59:18.248Z,26.20
2022-07-30T09:01:45.168Z,26.30
2022-07-30T09:04:11.999Z,26.30
2022-07-30T09:06:40.849Z,26.40
2022-07-30T09:09:07.920Z,26.50
2022-07-30T09:11:38.033Z,26.60
2022-07-30T09:14:10.151Z,26.60
2022-07-30T09:16:37.056Z,26.70
2022-07-30T09:19:19.888Z,26.70
2022-07-30T09:22:01.190Z,26.80
2022-07-30T09:24:50.933Z,26.80
2022-07-30T09:27:52.937Z,27.00
2022-07-30T09:30:48.478Z,27.10
2022-07-30T09:33:40.750Z,27.20
2022-07-30T09:36:39.497Z,27.30
2022-07-30T09:39:30.837Z,27.30
2022-07-30T09:42:29.450Z,27.50
2022-07-30T09:45:13.028Z,27.30
2022-07-30T09:47:45.015Z,27.50
2022-07-30T09:50:17.764Z,27.40
2022-07-30T09:53:06.476Z,27.50
2022-07-30T09:55:36.411Z,27.70
2022-07-30T09:58:09.816Z,27.80
2022-07-30T10:00:42.289Z,27.90
2022-07-30T10:03:38.480Z,27.90
2022-07-30T10:06:38.164Z,28.00
2022-07-30T10:09:33.499Z,28.10
2022-07-30T10:12:10.498Z,28.20
2022-07-30T10:14:43.954Z,28.20
2022-07-30T10:17:15.091Z,28.20
2022-07-30T10:19:53.206Z,28.20
2022-07-30T10:22:40.419Z,28.30
2022-07-30T10:25:30.610Z,28.40
2022-07-30T10:28:09.966Z,28.50
2022-07-30T10:30:37.128Z,28.50
2022-07-30T10:33:08.094Z,28.40
2022-07-30T10:35:38.396Z,28.60
2022-07-30T10:38:13.442Z,28.50
2022-07-30T10:40:46.476Z,28.50
2022-07-30T10:43:40.092Z,28.60
2022-07-30T10:46:27.081Z,28.70
2022-07-30T10:48:55.620Z,28.60
2022-07-30T10:51:43.458Z,28.70
2022-07-30T10:54:39.360Z,28.80
2022-07-30T10:57:10.704Z,28.70
2022-07-30T10:59:58.629Z,28.70
2022-07-30T11:02:28.578Z,28.50
2022-07-30T11:05:17.951Z,28.50
2022-07-30T11:07:47.400Z,28.30
2022-07-30T11:10:50.004Z,28.50
2022-07-30T11:13:16.864Z,28.30
2022-07-30T11:15:59.681Z,28.50
2022-07-30T11:18:28.788Z,28.40
2022-07-30T11:21:21.389Z,28.40
2022-07-30T11:23:49.459Z,28.30
2022-07-30T11:26:41.187Z,28.20
2022-07-30T11:29:33.133Z,27.90
2022-07-30T11:32:26.490Z,27.80
2022-07-30T11:35:11.805Z,27.80
2022-07-30T11:38:09.446Z,27.80
2022-07-30T11:40:42.857Z,27.60
2022-07-30T11:43:35.826Z,27.40
2022-07-30T11:46:17.916Z,27.20
2022-07-30T11:49:08.228Z,27.10
2022-07-30T11:51:43.071Z,27.00
2022-07-30T11:54:10.995Z,27.00
2022-07-30T11:56:54.564Z,27.00
2022-07-30T11:59:21.611Z,26.80
2022-07-30T12:02:01.683Z,27.00
2022-07-30T12:04:29.660Z,27.10
2022-07-30T12:06:56.530Z,27.00
2022-07-30T12:09:27.535Z,27.10
2022-07-30T12:11:55.700Z,26.90
2022-07-30T12:14:22.582Z,27.00
2022-07-30T12:16:51.487Z,26.90
2022-07-30T12:19:18.397Z,26.80
2022-07-30T12:21:49.420Z,26.70
2022-07-30T12:24:25.216Z,26.70
2022-07-30T12:26:52.302Z,26.80
2022-07-30T12:29:21.601Z,26.70
2022-07-30T12:31:48.527Z,26.80
2022-07-30T12:34:24.089Z,26.80
2022-07-30T12:36:51.636Z,26.90
2022-07-30T12:39:21.331Z,26.80
2022-07-30T12:41:49.913Z,26.80
2022-07-30T12:44:44.653Z,26.70
2022-07-30T12:47:31.065Z,26.70
2022-07-30T12:50:01.333Z,26.70
2022-07-30T12:52:34.654Z,26.60
2022-07-30T12:55:10.208Z,26.60
2022-07-30T12:57:58.169Z,26.60
2022-07-30T13:00:31.496Z,26.60
2022-07-30T13:02:58.991Z,26.70
2022-07-30T13:05:47.962Z,26.80
2022-07-30T13:08:14.909Z,26.80
2022-07-30T13:11:01.829Z,26.90
2022-07-30T13:13:29.697Z,26.80
2022-07-30T13:16:05.973Z,26.70
2022-07-30T13:18:34.278Z,26.70
2022-07-30T13:21:02.553Z,26.60
2022-07-30T13:23:32.478Z,26.60
2022-07-30T13:25:59.313Z,26.60
2022-07-30T13:28:26.889Z,26.60
2022-07-30T13:30:53.833Z,26.50
2022-07-30T13:33:20.626Z,26.50
2022-07-30T13:35:47.566Z,26.50
2022-07-30T13:38:15.599Z,26.50
2022-07-30T13:40:42.704Z,26.60
2022-07-30T13:43:09.747Z,26.60
2022-07-30T13:45:37.059Z,26.40
2022-07-30T13:48:04.219Z,26.30
2022-07-30T13:50:31.186Z,26.20
2022-07-30T13:53:02.064Z,26.30
2022-07-30T13:55:29.874Z,26.30
2022-07-30T13:57:56.985Z,26.30
2022-07-30T14:00:24.671Z,26.40
2022-07-30T14:02:51.827Z,26.50
2022-07-30T14:05:18.736Z,26.60
2022-07-30T14:07:45.575Z,26.60
2022-07-30T14:10:12.414Z,26.60
2022-07-30T14:12:39.999Z,26.60
2022-07-30T14:15:09.302Z,26.50
2022-07-30T14:17:36.463Z,26.60
2022-07-30T14:20:03.980Z,26.50
2022-07-30T14:22:30.845Z,26.50
2022-07-30T14:24:57.680Z,26.50
2022-07-30T14:27:24.606Z,26.30
2022-07-30T14:29:51.514Z,26.40
2022-07-30T14:32:18.364Z,26.40
2022-07-30T14:34:49.572Z,26.40
2022-07-30T14:37:16.734Z,26.40
2022-07-30T14:39:43.712Z,26.40
2022-07-30T14:42:11.252Z,26.30
2022-07-30T14:44:38.143Z,26.30
2022-07-30T14:47:05.415Z,26.30
2022-07-30T14:49:32.482Z,26.30
2022-07-30T14:51:59.481Z,26.20
2022-07-30T14:54:27.866Z,26.30
2022-07-30T14:56:58.197Z,26.30
2022-07-30T14:59:27.556Z,26.30
2022-07-30T15:01:55.449Z,26.30
2022-07-30T15:04:23.102Z,26.10
2022-07-30T15:06:50.510Z,26.00
2022-07-30T15:09:19.710Z,25.90
2022-07-30T15:14:33.400Z,25.90
2022-07-30T15:17:04.272Z,25.90
2022-07-30T15:19:32.071Z,25.80
2022-07-30T15:22:02.001Z,25.80
2022-07-30T15:24:30.056Z,25.80
2022-07-30T15:26:56.966Z,25.70
2022-07-30T15:29:24.288Z,25.70
2022-07-30T15:31:51.697Z,25.70
2022-07-30T15:34:18.923Z,25.70
2022-07-30T15:36:45.817Z,25.70
2022-07-30T15:39:13.424Z,25.60
2022-07-30T15:41:42.607Z,25.50
2022-07-30T15:44:09.481Z,25.40
2022-07-30T15:46:36.379Z,25.30
2022-07-30T15:49:03.322Z,25.40
2022-07-30T15:51:32.087Z,25.30
2022-07-30T15:53:59.624Z,25.20
2022-07-30T15:56:28.199Z,25.20
2022-07-30T15:58:55.520Z,25.20
2022-07-30T16:01:22.958Z,25.20
2022-07-30T16:03:49.897Z,25.30
2022-07-30T16:06:16.746Z,25.10
2022-07-30T16:08:43.614Z,25.10
2022-07-30T16:11:11.162Z,25.10
2022-07-30T16:13:38.237Z,25.10
2022-07-30T16:16:05.326Z,25.00
2022-07-30T16:18:32.384Z,24.90
2022-07-30T16:21:01.166Z,25.00
2022-07-30T16:23:28.458Z,25.00
2022-07-30T16:26:03.787Z,25.00
2022-07-30T16:28:30.706Z,24.90
2022-07-30T16:30:57.625Z,24.90
2022-07-30T16:33:24.524Z,24.90
2022-07-30T16:35:51.504Z,24.90
2022-07-30T16:38:19.664Z,24.90
2022-07-30T16:40:46.523Z,24.90
2022-07-30T16:43:15.525Z,24.80
2022-07-30T16:45:43.834Z,24.70
2022-07-30T16:48:11.939Z,24.70
2022-07-30T16:50:40.658Z,24.60
2022-07-30T16:53:13.337Z,24.70
2022-07-30T16:55:41.617Z,24.50
2022-07-30T16:58:08.738Z,24.40
2022-07-30T17:00:35.628Z,24.30
2022-07-30T17:03:02.780Z,24.30
2022-07-30T17:05:29.861Z,24.30
2022-07-30T17:07:56.801Z,24.20
2022-07-30T17:10:26.593Z,24.20
2022-07-30T17:12:54.246Z,24.20
2022-07-30T17:15:32.178Z,24.20
2022-07-30T17:18:02.937Z,24.10
2022-07-30T17:20:31.075Z,24.10
2022-07-30T17:22:58.122Z,24.00
2022-07-30T17:25:27.430Z,23.90
2022-07-30T17:27:59.038Z,23.90
2022-07-30T17:30:29.858Z,23.70
2022-07-30T17:32:56.771Z,23.60
2022-07-30T17:35:24.792Z,23.50
2022-07-30T17:37:52.103Z,23.60
2022-07-30T17:40:19.452Z,23.40
2022-07-30T17:43:02.948Z,23.40
2022-07-30T17:45:34.593Z,23.50
2022-07-30T17:48:02.172Z,23.40
2022-07-30T17:50:30.116Z,23.30
2022-07-30T17:52:56.968Z,23.20
2022-07-30T17:55:24.308Z,23.20
2022-07-30T17:57:51.134Z,23.20
2022-07-30T18:00:18.035Z,23.10
2022-07-30T18:02:44.972Z,23.10
2022-07-30T18:05:15.334Z,23.10
2022-07-30T18:07:43.478Z,23.00
2022-07-30T18:10:12.226Z,23.00
2022-07-30T18:12:39.497Z,23.00
2022-07-30T18:15:16.779Z,22.90
2022-07-30T18:17:43.646Z,22.90
2022-07-30T18:20:11.102Z,22.90
2022-07-30T18:22:38.213Z,22.90
2022-07-30T18:25:08.203Z,22.80
2022-07-30T18:27:45.574Z,22.80
2022-07-30T18:30:12.711Z,22.80
2022-07-30T18:32:40.617Z,22.80
2022-07-30T18:35:12.160Z,22.70
2022-07-30T18:37:42.045Z,22.70
2022-07-30T18:40:10.407Z,22.60
2022-07-30T18:42:37.390Z,22.70
2022-07-30T18:45:05.076Z,22.70
2022-07-30T18:47:31.899Z,22.60
2022-07-30T18:49:58.785Z,22.60
2022-07-30T18:52:25.850Z,22.50
2022-07-30T18:54:52.719Z,22.50
2022-07-30T18:57:19.886Z,22.50
2022-07-30T18:59:46.739Z,22.50
2022-07-30T19:02:13.514Z,22.40
2022-07-30T19:04:40.361Z,22.40
2022-07-30T19:07:07.285Z,22.30
2022-07-30T19:09:34.534Z,22.30
2022-07-30T19:12:01.643Z,22.30
2022-07-30T19:14:28.794Z,22.30
2022-07-30T19:16:59.366Z,22.30
2022-07-30T19:19:26.998Z,22.30
2022-07-30T19:21:53.963Z,22.30
2022-07-30T19:24:21.027Z,22.30
2022-07-30T19:26:47.867Z,22.20
2022-07-30T19:29:14.688Z,22.20
2022-07-30T19:31:41.676Z,22.20
2022-07-30T19:34:10.722Z,22.20
2022-07-30T19:36:38.497Z,22.20
2022-07-30T19:39:06.960Z,22.20
2022-07-30T19:41:40.458Z,22.10
2022-07-30T19:44:09.147Z,22.10
2022-07-30T19:46:36.650Z,22.10
2022-07-30T19:49:03.982Z,22.10
2022-07-30T19:52:09.808Z,22.00
2022-07-30T19:54:20.909Z,22.00
2022-07-30T19:56:48.670Z,22.00
2022-07-30T19:59:15.865Z,22.00
2022-07-30T20:01:43.699Z,22.00
2022-07-30T20:04:11.237Z,22.00
2022-07-30T20:06:39.952Z,22.00
2022-07-30T20:09:14.995Z,21.90
2022-07-30T20:11:43.573Z,21.90
2022-07-30T20:14:10.414Z,21.90
2022-07-30T20:16:37.475Z,21.90
2022-07-30T20:19:05.505Z,21.90
2022-07-30T20:21:56.531Z,21.90
2022-07-30T20:24:21.047Z,21.80
2022-07-30T20:26:48.078Z,21.90
2022-07-30T20:29:19.264Z,21.90
2022-07-30T20:31:46.621Z,21.90
2022-07-30T20:34:17.995Z,21.90
2022-07-30T20:36:45.066Z,21.80
2022-07-30T20:39:13.415Z,21.80
2022-07-30T20:41:45.072Z,21.80
2022-07-30T20:44:14.943Z,21.80
2022-07-30T20:46:52.743Z,21.80
2022-07-30T20:49:24.326Z,21.80
2022-07-30T20:52:02.625Z,21.80
2022-07-30T20:54:29.989Z,21.80
2022-07-30T20:56:57.510Z,21.80
2022-07-30T20:59:25.160Z,21.80
2022-07-30T21:01:51.953Z,21.80
2022-07-30T21:04:23.978Z,21.80
2022-07-30T21:06:52.939Z,21.70
2022-07-30T21:09:20.224Z,21.70
2022-07-30T21:12:00.764Z,21.70
2022-07-30T21:14:27.710Z,21.70
2022-07-30T21:16:56.272Z,21.70
2022-07-30T21:19:23.367Z,21.70
2022-07-30T21:21:50.654Z,21.70
2022-07-30T21:24:19.466Z,21.70
2022-07-30T21:26:48.861Z,21.70
2022-07-30T21:29:18.384Z,21.70
2022-07-30T21:32:01.864Z,21.60
2022-07-30T21:34:35.899Z,21.70
2022-07-30T21:37:07.643Z,21.60
2022-07-30T21:39:39.928Z,21.60
2022-07-30T21:42:08.714Z,21.60
2022-07-30T21:44:36.325Z,21.60
2022-07-30T21:47:05.567Z,21.60
2022-07-30T21:49:37.295Z,21.50
2022-07-30T21:52:04.981Z,21.50
2022-07-30T21:57:23.102Z,21.50
2022-07-30T21:59:54.046Z,21.40
2022-07-30T22:02:23.048Z,21.40
2022-07-30T22:04:51.359Z,21.40
2022-07-30T22:07:18.241Z,21.30
2022-07-30T22:09:45.460Z,21.30
2022-07-30T22:12:18.240Z,21.30
2022-07-30T22:14:48.745Z,21.30
2022-07-30T22:17:23.897Z,21.20
2022-07-30T22:20:04.548Z,21.20
2022-07-30T22:22:37.579Z,21.20
2022-07-30T22:25:09.423Z,21.20
2022-07-30T22:27:56.286Z,21.20
2022-07-30T22:30:26.579Z,21.10
2022-07-30T22:33:13.460Z,21.10
2022-07-30T22:35:46.587Z,21.10
2022-07-30T22:38:14.668Z,21.10
2022-07-30T22:40:42.791Z,21.10
2022-07-30T22:43:12.604Z,21.00
2022-07-30T22:45:48.628Z,21.10
2022-07-30T22:48:17.184Z,21.10
2022-07-30T22:50:43.992Z,21.00
2022-07-30T22:55:58.699Z,21.00
2022-07-30T23:01:12.620Z,20.90
2022-07-30T23:03:39.459Z,20.90
2022-07-30T23:06:14.399Z,20.90
2022-07-30T23:08:41.740Z,20.80
2022-07-30T23:11:09.285Z,20.80
2022-07-30T23:12:27.818Z,21.50
2022-07-30T23:12:33.878Z,21.00
2022-07-30T23:12:34.170Z,21.00
2022-07-30T23:13:38.539Z,20.80
2022-07-30T23:16:06.702Z,20.70
2022-07-30T23:18:35.120Z,20.70
2022-07-30T23:21:02.822Z,20.70
2022-07-30T23:23:33.922Z,20.60
2022-07-30T23:26:02.068Z,20.60
2022-07-30T23:28:28.922Z,20.50
2022-07-30T23:30:55.788Z,20.50
2022-07-30T23:33:22.662Z,20.50
2022-07-30T23:35:49.531Z,20.50
2022-07-30T23:38:16.643Z,20.50
2022-07-30T23:40:43.611Z,20.40
2022-07-30T23:43:10.392Z,20.40
2022-07-30T23:45:37.204Z,20.40
2022-07-30T23:48:04.211Z,20.40
2022-07-30T23:50:32.498Z,20.40
2022-07-30T23:53:00.413Z,20.30
2022-07-30T23:55:27.470Z,20.30
2022-07-30T23:57:54.369Z,20.30
